sensor_id;sensor_type;location;lat;lon;timestamp;P1;durP1;ratioP1;P2;durP2;ratioP2
21424;SDS011;10873;51.132;16.848;2023-11-21T00:00:20;2.35;;;1.38;;
21424;SDS011;10873;51.132;16.848;2023-11-21T00:03:06;2.83;;;1.40;;
21424;SDS011;10873;51.132;16.848;2023-11-21T00:05:32;3.05;;;1.58;;
21424;SDS011;10873;51.132;16.848;2023-11-21T00:07:58;2.60;;;1.38;;
21424;SDS011;10873;51.132;16.848;2023-11-21T00:10:24;4.35;;;1.65;;
21424;SDS011;10873;51.132;16.848;2023-11-21T00:12:50;3.70;;;1.30;;
21424;SDS011;10873;51.132;16.848;2023-11-21T00:15:18;3.85;;;1.70;;
21424;SDS011;10873;51.132;16.848;2023-11-21T00:17:44;2.40;;;1.45;;
21424;SDS011;10873;51.132;16.848;2023-11-21T00:20:10;2.60;;;1.40;;
21424;SDS011;10873;51.132;16.848;2023-11-21T00:22:40;3.03;;;1.42;;
21424;SDS011;10873;51.132;16.848;2023-11-21T00:25:07;2.20;;;1.30;;
21424;SDS011;10873;51.132;16.848;2023-11-21T00:27:34;2.88;;;1.75;;
21424;SDS011;10873;51.132;16.848;2023-11-21T00:30:00;3.03;;;1.48;;
21424;SDS011;10873;51.132;16.848;2023-11-21T00:32:28;2.40;;;1.48;;
21424;SDS011;10873;51.132;16.848;2023-11-21T00:34:54;3.22;;;1.77;;
21424;SDS011;10873;51.132;16.848;2023-11-21T00:37:20;5.22;;;1.60;;
21424;SDS011;10873;51.132;16.848;2023-11-21T00:39:46;2.30;;;1.40;;
21424;SDS011;10873;51.132;16.848;2023-11-21T00:42:12;2.88;;;1.70;;
21424;SDS011;10873;51.132;16.848;2023-11-21T00:44:38;3.17;;;1.55;;
21424;SDS011;10873;51.132;16.848;2023-11-21T00:47:05;2.53;;;1.50;;
21424;SDS011;10873;51.132;16.848;2023-11-21T00:49:32;3.83;;;1.50;;
21424;SDS011;10873;51.132;16.848;2023-11-21T00:51:58;2.80;;;1.40;;
21424;SDS011;10873;51.132;16.848;2023-11-21T00:54:24;2.80;;;1.40;;
21424;SDS011;10873;51.132;16.848;2023-11-21T00:56:50;2.35;;;1.27;;
21424;SDS011;10873;51.132;16.848;2023-11-21T00:59:16;4.28;;;1.48;;
21424;SDS011;10873;51.132;16.848;2023-11-21T01:01:42;2.03;;;1.30;;
21424;SDS011;10873;51.132;16.848;2023-11-21T01:04:09;3.35;;;1.70;;
21424;SDS011;10873;51.132;16.848;2023-11-21T01:06:37;1.90;;;1.40;;
21424;SDS011;10873;51.132;16.848;2023-11-21T01:09:04;2.88;;;1.23;;
21424;SDS011;10873;51.132;16.848;2023-11-21T01:11:39;3.08;;;1.55;;
21424;SDS011;10873;51.132;16.848;2023-11-21T01:14:05;3.58;;;1.40;;
21424;SDS011;10873;51.132;16.848;2023-11-21T01:16:32;2.72;;;1.50;;
21424;SDS011;10873;51.132;16.848;2023-11-21T01:18:58;3.08;;;1.48;;
21424;SDS011;10873;51.132;16.848;2023-11-21T01:21:24;3.28;;;1.60;;
21424;SDS011;10873;51.132;16.848;2023-11-21T01:23:52;3.28;;;1.38;;
21424;SDS011;10873;51.132;16.848;2023-11-21T01:26:18;2.55;;;1.50;;
21424;SDS011;10873;51.132;16.848;2023-11-21T01:28:44;4.43;;;1.75;;
21424;SDS011;10873;51.132;16.848;2023-11-21T01:31:10;3.88;;;1.40;;
21424;SDS011;10873;51.132;16.848;2023-11-21T01:33:36;3.42;;;1.50;;
21424;SDS011;10873;51.132;16.848;2023-11-21T01:36:02;2.05;;;1.30;;
21424;SDS011;10873;51.132;16.848;2023-11-21T01:38:29;3.45;;;1.60;;
21424;SDS011;10873;51.132;16.848;2023-11-21T01:40:56;2.63;;;1.60;;
21424;SDS011;10873;51.132;16.848;2023-11-21T01:43:22;2.95;;;1.40;;
21424;SDS011;10873;51.132;16.848;2023-11-21T01:45:48;2.47;;;1.38;;
21424;SDS011;10873;51.132;16.848;2023-11-21T01:48:14;2.38;;;1.38;;
21424;SDS011;10873;51.132;16.848;2023-11-21T01:50:50;1.92;;;1.35;;
21424;SDS011;10873;51.132;16.848;2023-11-21T01:53:16;1.95;;;1.30;;
21424;SDS011;10873;51.132;16.848;2023-11-21T01:55:43;2.50;;;1.45;;
21424;SDS011;10873;51.132;16.848;2023-11-21T01:58:12;2.55;;;1.35;;
21424;SDS011;10873;51.132;16.848;2023-11-21T02:00:39;4.35;;;1.40;;
21424;SDS011;10873;51.132;16.848;2023-11-21T02:03:05;1.90;;;1.27;;
21424;SDS011;10873;51.132;16.848;2023-11-21T02:05:33;3.28;;;1.67;;
21424;SDS011;10873;51.132;16.848;2023-11-21T02:07:59;5.22;;;1.38;;
21424;SDS011;10873;51.132;16.848;2023-11-21T02:10:26;3.00;;;1.52;;
21424;SDS011;10873;51.132;16.848;2023-11-21T02:12:52;2.33;;;1.25;;
21424;SDS011;10873;51.132;16.848;2023-11-21T02:15:19;2.40;;;1.05;;
21424;SDS011;10873;51.132;16.848;2023-11-21T02:17:46;1.95;;;1.10;;
21424;SDS011;10873;51.132;16.848;2023-11-21T02:20:16;1.83;;;1.10;;
21424;SDS011;10873;51.132;16.848;2023-11-21T02:22:43;2.22;;;1.40;;
21424;SDS011;10873;51.132;16.848;2023-11-21T02:25:14;1.90;;;1.02;;
21424;SDS011;10873;51.132;16.848;2023-11-21T02:27:41;2.63;;;1.20;;
21424;SDS011;10873;51.132;16.848;2023-11-21T02:30:09;2.38;;;1.30;;
21424;SDS011;10873;51.132;16.848;2023-11-21T02:32:38;2.05;;;1.10;;
21424;SDS011;10873;51.132;16.848;2023-11-21T02:35:05;2.80;;;1.35;;
21424;SDS011;10873;51.132;16.848;2023-11-21T02:37:33;1.88;;;1.20;;
21424;SDS011;10873;51.132;16.848;2023-11-21T02:40:10;1.80;;;1.20;;
21424;SDS011;10873;51.132;16.848;2023-11-21T02:42:42;3.38;;;1.52;;
21424;SDS011;10873;51.132;16.848;2023-11-21T02:45:09;3.22;;;1.10;;
21424;SDS011;10873;51.132;16.848;2023-11-21T02:47:38;1.83;;;1.25;;
21424;SDS011;10873;51.132;16.848;2023-11-21T02:50:05;2.28;;;1.20;;
21424;SDS011;10873;51.132;16.848;2023-11-21T02:52:33;3.00;;;1.27;;
21424;SDS011;10873;51.132;16.848;2023-11-21T02:55:00;2.35;;;1.20;;
21424;SDS011;10873;51.132;16.848;2023-11-21T02:57:28;1.40;;;1.00;;
21424;SDS011;10873;51.132;16.848;2023-11-21T02:59:54;2.78;;;1.42;;
21424;SDS011;10873;51.132;16.848;2023-11-21T03:02:20;1.70;;;1.20;;
21424;SDS011;10873;51.132;16.848;2023-11-21T03:04:46;2.20;;;1.27;;
21424;SDS011;10873;51.132;16.848;2023-11-21T03:07:14;1.67;;;1.20;;
21424;SDS011;10873;51.132;16.848;2023-11-21T03:09:40;1.23;;;1.13;;
21424;SDS011;10873;51.132;16.848;2023-11-21T03:12:07;3.50;;;1.38;;
21424;SDS011;10873;51.132;16.848;2023-11-21T03:14:42;3.33;;;1.42;;
21424;SDS011;10873;51.132;16.848;2023-11-21T03:17:11;2.13;;;1.33;;
21424;SDS011;10873;51.132;16.848;2023-11-21T03:19:37;2.38;;;1.40;;
21424;SDS011;10873;51.132;16.848;2023-11-21T03:22:03;1.48;;;1.20;;
21424;SDS011;10873;51.132;16.848;2023-11-21T03:24:29;3.55;;;1.27;;
21424;SDS011;10873;51.132;16.848;2023-11-21T03:26:55;2.50;;;1.40;;
21424;SDS011;10873;51.132;16.848;2023-11-21T03:29:22;1.92;;;1.15;;
21424;SDS011;10873;51.132;16.848;2023-11-21T03:31:49;2.13;;;1.40;;
21424;SDS011;10873;51.132;16.848;2023-11-21T03:34:16;2.13;;;1.30;;
21424;SDS011;10873;51.132;16.848;2023-11-21T03:36:45;3.45;;;1.30;;
21424;SDS011;10873;51.132;16.848;2023-11-21T03:39:12;3.15;;;1.15;;
21424;SDS011;10873;51.132;16.848;2023-11-21T03:41:38;1.73;;;1.35;;
21424;SDS011;10873;51.132;16.848;2023-11-21T03:44:04;3.20;;;1.30;;
21424;SDS011;10873;51.132;16.848;2023-11-21T03:46:30;1.50;;;1.10;;
21424;SDS011;10873;51.132;16.848;2023-11-21T03:48:58;1.83;;;1.27;;
21424;SDS011;10873;51.132;16.848;2023-11-21T03:51:24;1.92;;;1.30;;
21424;SDS011;10873;51.132;16.848;2023-11-21T03:53:50;3.83;;;1.65;;
21424;SDS011;10873;51.132;16.848;2023-11-21T03:56:16;2.20;;;1.30;;
21424;SDS011;10873;51.132;16.848;2023-11-21T03:58:42;2.35;;;1.23;;
21424;SDS011;10873;51.132;16.848;2023-11-21T04:01:08;1.80;;;1.40;;
21424;SDS011;10873;51.132;16.848;2023-11-21T04:03:34;2.08;;;1.63;;
21424;SDS011;10873;51.132;16.848;2023-11-21T04:06:02;3.85;;;1.70;;
21424;SDS011;10873;51.132;16.848;2023-11-21T04:08:29;2.30;;;1.40;;
21424;SDS011;10873;51.132;16.848;2023-11-21T04:10:55;3.00;;;1.30;;
21424;SDS011;10873;51.132;16.848;2023-11-21T04:13:21;1.90;;;1.30;;
21424;SDS011;10873;51.132;16.848;2023-11-21T04:15:47;2.63;;;1.40;;
21424;SDS011;10873;51.132;16.848;2023-11-21T04:18:13;3.35;;;1.52;;
21424;SDS011;10873;51.132;16.848;2023-11-21T04:20:39;2.08;;;1.20;;
21424;SDS011;10873;51.132;16.848;2023-11-21T04:23:06;1.50;;;1.30;;
21424;SDS011;10873;51.132;16.848;2023-11-21T04:25:34;2.08;;;1.20;;
21424;SDS011;10873;51.132;16.848;2023-11-21T04:28:00;2.63;;;1.30;;
21424;SDS011;10873;51.132;16.848;2023-11-21T04:30:26;2.10;;;1.30;;
21424;SDS011;10873;51.132;16.848;2023-11-21T04:32:52;1.73;;;1.20;;
21424;SDS011;10873;51.132;16.848;2023-11-21T04:35:20;3.15;;;1.50;;
21424;SDS011;10873;51.132;16.848;2023-11-21T04:37:46;3.50;;;1.67;;
21424;SDS011;10873;51.132;16.848;2023-11-21T04:40:14;2.25;;;1.38;;
21424;SDS011;10873;51.132;16.848;2023-11-21T04:42:40;2.05;;;1.42;;
21424;SDS011;10873;51.132;16.848;2023-11-21T04:45:07;3.03;;;1.33;;
21424;SDS011;10873;51.132;16.848;2023-11-21T04:47:34;5.28;;;1.45;;
21424;SDS011;10873;51.132;16.848;2023-11-21T04:50:00;3.00;;;1.33;;
21424;SDS011;10873;51.132;16.848;2023-11-21T04:52:27;2.72;;;1.55;;
21424;SDS011;10873;51.132;16.848;2023-11-21T04:54:53;3.17;;;1.52;;
21424;SDS011;10873;51.132;16.848;2023-11-21T04:57:21;1.90;;;1.27;;
21424;SDS011;10873;51.132;16.848;2023-11-21T04:59:47;2.15;;;1.30;;
21424;SDS011;10873;51.132;16.848;2023-11-21T05:02:13;2.72;;;1.38;;
21424;SDS011;10873;51.132;16.848;2023-11-21T05:04:40;1.50;;;1.17;;
21424;SDS011;10873;51.132;16.848;2023-11-21T05:07:08;1.60;;;1.27;;
21424;SDS011;10873;51.132;16.848;2023-11-21T05:09:34;3.75;;;1.48;;
21424;SDS011;10873;51.132;16.848;2023-11-21T05:12:08;4.15;;;1.40;;
21424;SDS011;10873;51.132;16.848;2023-11-21T05:14:35;2.53;;;1.23;;
21424;SDS011;10873;51.132;16.848;2023-11-21T05:17:01;1.75;;;1.00;;
21424;SDS011;10873;51.132;16.848;2023-11-21T05:19:29;3.53;;;1.30;;
21424;SDS011;10873;51.132;16.848;2023-11-21T05:21:55;2.30;;;1.42;;
21424;SDS011;10873;51.132;16.848;2023-11-21T05:24:21;2.47;;;1.17;;
21424;SDS011;10873;51.132;16.848;2023-11-21T05:26:47;1.88;;;1.13;;
21424;SDS011;10873;51.132;16.848;2023-11-21T05:29:13;2.08;;;1.30;;
21424;SDS011;10873;51.132;16.848;2023-11-21T05:31:41;2.40;;;1.20;;
21424;SDS011;10873;51.132;16.848;2023-11-21T05:34:07;2.65;;;1.50;;
21424;SDS011;10873;51.132;16.848;2023-11-21T05:36:33;1.98;;;1.30;;
21424;SDS011;10873;51.132;16.848;2023-11-21T05:38:59;1.98;;;1.20;;
21424;SDS011;10873;51.132;16.848;2023-11-21T05:41:25;1.85;;;1.30;;
21424;SDS011;10873;51.132;16.848;2023-11-21T05:43:51;2.53;;;1.60;;
21424;SDS011;10873;51.132;16.848;2023-11-21T05:46:19;2.72;;;1.52;;
21424;SDS011;10873;51.132;16.848;2023-11-21T05:48:47;1.60;;;1.10;;
21424;SDS011;10873;51.132;16.848;2023-11-21T05:51:17;2.45;;;1.45;;
21424;SDS011;10873;51.132;16.848;2023-11-21T05:53:43;3.38;;;1.33;;
21424;SDS011;10873;51.132;16.848;2023-11-21T05:56:10;2.10;;;1.40;;
21424;SDS011;10873;51.132;16.848;2023-11-21T05:58:35;2.40;;;1.38;;
21424;SDS011;10873;51.132;16.848;2023-11-21T06:01:02;2.53;;;1.52;;
21424;SDS011;10873;51.132;16.848;2023-11-21T06:03:32;4.82;;;1.42;;
21424;SDS011;10873;51.132;16.848;2023-11-21T06:06:00;2.63;;;1.67;;
21424;SDS011;10873;51.132;16.848;2023-11-21T06:08:26;3.90;;;1.50;;
21424;SDS011;10873;51.132;16.848;2023-11-21T06:10:52;1.75;;;1.10;;
21424;SDS011;10873;51.132;16.848;2023-11-21T06:13:18;3.47;;;1.40;;
21424;SDS011;10873;51.132;16.848;2023-11-21T06:15:50;11.30;;;1.63;;
21424;SDS011;10873;51.132;16.848;2023-11-21T06:18:16;59.78;;;7.50;;
21424;SDS011;10873;51.132;16.848;2023-11-21T06:20:44;63.60;;;11.27;;
21424;SDS011;10873;51.132;16.848;2023-11-21T06:23:12;24.05;;;5.63;;
21424;SDS011;10873;51.132;16.848;2023-11-21T06:25:38;31.52;;;3.50;;
21424;SDS011;10873;51.132;16.848;2023-11-21T06:28:04;17.90;;;2.63;;
21424;SDS011;10873;51.132;16.848;2023-11-21T06:30:30;15.23;;;2.50;;
21424;SDS011;10873;51.132;16.848;2023-11-21T06:32:57;115.30;;;14.10;;
21424;SDS011;10873;51.132;16.848;2023-11-21T06:35:23;34.45;;;7.63;;
21424;SDS011;10873;51.132;16.848;2023-11-21T06:37:49;74.88;;;11.50;;
21424;SDS011;10873;51.132;16.848;2023-11-21T06:40:18;48.15;;;10.27;;
21424;SDS011;10873;51.132;16.848;2023-11-21T06:42:44;53.55;;;19.90;;
21424;SDS011;10873;51.132;16.848;2023-11-21T06:45:11;67.05;;;23.05;;
21424;SDS011;10873;51.132;16.848;2023-11-21T06:47:38;67.35;;;26.42;;
21424;SDS011;10873;51.132;16.848;2023-11-21T06:50:05;69.28;;;32.80;;
21424;SDS011;10873;51.132;16.848;2023-11-21T06:52:32;77.80;;;36.70;;
21424;SDS011;10873;51.132;16.848;2023-11-21T06:54:58;74.40;;;37.75;;
21424;SDS011;10873;51.132;16.848;2023-11-21T06:57:26;70.05;;;38.05;;
21424;SDS011;10873;51.132;16.848;2023-11-21T06:59:52;64.20;;;35.78;;
21424;SDS011;10873;51.132;16.848;2023-11-21T07:02:18;67.38;;;34.38;;
21424;SDS011;10873;51.132;16.848;2023-11-21T07:04:44;62.45;;;34.20;;
21424;SDS011;10873;51.132;16.848;2023-11-21T07:07:11;58.78;;;33.20;;
21424;SDS011;10873;51.132;16.848;2023-11-21T07:09:37;57.92;;;32.47;;
21424;SDS011;10873;51.132;16.848;2023-11-21T07:12:03;55.50;;;31.15;;
21424;SDS011;10873;51.132;16.848;2023-11-21T07:14:34;55.67;;;30.05;;
21424;SDS011;10873;51.132;16.848;2023-11-21T07:17:00;50.05;;;27.95;;
21424;SDS011;10873;51.132;16.848;2023-11-21T07:19:26;48.72;;;26.58;;
21424;SDS011;10873;51.132;16.848;2023-11-21T07:21:52;48.65;;;27.50;;
21424;SDS011;10873;51.132;16.848;2023-11-21T07:24:18;47.00;;;26.15;;
21424;SDS011;10873;51.132;16.848;2023-11-21T07:26:44;42.85;;;24.02;;
21424;SDS011;10873;51.132;16.848;2023-11-21T07:29:10;42.63;;;23.52;;
21424;SDS011;10873;51.132;16.848;2023-11-21T07:31:38;47.58;;;24.60;;
21424;SDS011;10873;51.132;16.848;2023-11-21T07:34:04;43.67;;;24.23;;
21424;SDS011;10873;51.132;16.848;2023-11-21T07:36:30;42.30;;;23.88;;
21424;SDS011;10873;51.132;16.848;2023-11-21T07:38:56;39.92;;;22.77;;
21424;SDS011;10873;51.132;16.848;2023-11-21T07:41:22;38.65;;;22.33;;
21424;SDS011;10873;51.132;16.848;2023-11-21T07:43:48;42.70;;;21.15;;
21424;SDS011;10873;51.132;16.848;2023-11-21T07:46:14;35.70;;;20.95;;
21424;SDS011;10873;51.132;16.848;2023-11-21T07:48:42;37.63;;;20.13;;
21424;SDS011;10873;51.132;16.848;2023-11-21T07:51:08;35.95;;;19.58;;
21424;SDS011;10873;51.132;16.848;2023-11-21T07:53:35;33.47;;;19.70;;
21424;SDS011;10873;51.132;16.848;2023-11-21T07:56:02;33.38;;;19.38;;
21424;SDS011;10873;51.132;16.848;2023-11-21T07:58:29;31.48;;;18.30;;
21424;SDS011;10873;51.132;16.848;2023-11-21T08:00:55;29.20;;;17.25;;
21424;SDS011;10873;51.132;16.848;2023-11-21T08:03:21;28.48;;;16.35;;
21424;SDS011;10873;51.132;16.848;2023-11-21T08:05:48;27.70;;;14.75;;
21424;SDS011;10873;51.132;16.848;2023-11-21T08:08:14;26.70;;;14.55;;
21424;SDS011;10873;51.132;16.848;2023-11-21T08:10:43;26.52;;;14.93;;
21424;SDS011;10873;51.132;16.848;2023-11-21T08:13:21;25.08;;;14.70;;
21424;SDS011;10873;51.132;16.848;2023-11-21T08:15:48;25.45;;;14.10;;
21424;SDS011;10873;51.132;16.848;2023-11-21T08:18:14;23.45;;;13.00;;
21424;SDS011;10873;51.132;16.848;2023-11-21T08:20:45;25.75;;;14.13;;
21424;SDS011;10873;51.132;16.848;2023-11-21T08:23:15;25.33;;;12.60;;
21424;SDS011;10873;51.132;16.848;2023-11-21T08:25:44;23.52;;;13.10;;
21424;SDS011;10873;51.132;16.848;2023-11-21T08:28:13;20.60;;;12.07;;
21424;SDS011;10873;51.132;16.848;2023-11-21T08:30:42;21.27;;;11.88;;
21424;SDS011;10873;51.132;16.848;2023-11-21T08:33:08;17.83;;;11.63;;
21424;SDS011;10873;51.132;16.848;2023-11-21T08:35:34;22.75;;;11.98;;
21424;SDS011;10873;51.132;16.848;2023-11-21T08:38:01;19.45;;;10.90;;
21424;SDS011;10873;51.132;16.848;2023-11-21T08:40:29;21.48;;;10.82;;
21424;SDS011;10873;51.132;16.848;2023-11-21T08:42:56;21.40;;;11.80;;
21424;SDS011;10873;51.132;16.848;2023-11-21T08:45:24;22.90;;;11.55;;
21424;SDS011;10873;51.132;16.848;2023-11-21T08:47:53;22.45;;;11.20;;
21424;SDS011;10873;51.132;16.848;2023-11-21T08:50:20;20.90;;;11.10;;
21424;SDS011;10873;51.132;16.848;2023-11-21T08:52:47;20.98;;;10.40;;
21424;SDS011;10873;51.132;16.848;2023-11-21T08:55:14;19.70;;;9.88;;
21424;SDS011;10873;51.132;16.848;2023-11-21T08:57:43;19.95;;;10.77;;
21424;SDS011;10873;51.132;16.848;2023-11-21T09:00:10;21.30;;;10.77;;
21424;SDS011;10873;51.132;16.848;2023-11-21T09:02:45;22.20;;;10.25;;
21424;SDS011;10873;51.132;16.848;2023-11-21T09:05:11;23.38;;;10.07;;
21424;SDS011;10873;51.132;16.848;2023-11-21T09:07:39;17.40;;;9.43;;
21424;SDS011;10873;51.132;16.848;2023-11-21T09:10:06;20.55;;;10.07;;
21424;SDS011;10873;51.132;16.848;2023-11-21T09:12:34;17.67;;;9.63;;
21424;SDS011;10873;51.132;16.848;2023-11-21T09:15:04;19.92;;;9.55;;
21424;SDS011;10873;51.132;16.848;2023-11-21T09:17:31;16.02;;;8.75;;
21424;SDS011;10873;51.132;16.848;2023-11-21T09:19:57;15.55;;;8.90;;
21424;SDS011;10873;51.132;16.848;2023-11-21T09:22:23;17.40;;;8.77;;
21424;SDS011;10873;51.132;16.848;2023-11-21T09:24:50;17.83;;;8.68;;
21424;SDS011;10873;51.132;16.848;2023-11-21T09:27:16;15.75;;;8.77;;
21424;SDS011;10873;51.132;16.848;2023-11-21T09:29:42;17.98;;;8.05;;
21424;SDS011;10873;51.132;16.848;2023-11-21T09:32:10;21.05;;;9.00;;
21424;SDS011;10873;51.132;16.848;2023-11-21T09:34:37;14.07;;;7.65;;
21424;SDS011;10873;51.132;16.848;2023-11-21T09:37:03;14.93;;;8.02;;
21424;SDS011;10873;51.132;16.848;2023-11-21T09:39:31;15.88;;;7.93;;
21424;SDS011;10873;51.132;16.848;2023-11-21T09:42:02;12.82;;;7.00;;
21424;SDS011;10873;51.132;16.848;2023-11-21T09:44:35;15.02;;;7.68;;
21424;SDS011;10873;51.132;16.848;2023-11-21T09:47:13;14.23;;;7.15;;
21424;SDS011;10873;51.132;16.848;2023-11-21T09:49:41;12.00;;;7.30;;
21424;SDS011;10873;51.132;16.848;2023-11-21T09:52:12;13.65;;;7.30;;
21424;SDS011;10873;51.132;16.848;2023-11-21T09:54:50;12.88;;;7.07;;
21424;SDS011;10873;51.132;16.848;2023-11-21T09:57:19;15.02;;;7.22;;
21424;SDS011;10873;51.132;16.848;2023-11-21T09:59:46;16.50;;;7.90;;
21424;SDS011;10873;51.132;16.848;2023-11-21T10:02:17;17.20;;;9.27;;
21424;SDS011;10873;51.132;16.848;2023-11-21T10:04:46;21.55;;;9.90;;
21424;SDS011;10873;51.132;16.848;2023-11-21T10:07:13;20.20;;;10.23;;
21424;SDS011;10873;51.132;16.848;2023-11-21T10:09:41;21.13;;;11.32;;
21424;SDS011;10873;51.132;16.848;2023-11-21T10:12:08;21.45;;;11.05;;
21424;SDS011;10873;51.132;16.848;2023-11-21T10:14:46;24.17;;;11.50;;
21424;SDS011;10873;51.132;16.848;2023-11-21T10:17:14;22.92;;;11.23;;
21424;SDS011;10873;51.132;16.848;2023-11-21T10:19:45;25.17;;;12.18;;
21424;SDS011;10873;51.132;16.848;2023-11-21T10:22:12;22.13;;;11.38;;
21424;SDS011;10873;51.132;16.848;2023-11-21T10:24:40;20.80;;;11.25;;
21424;SDS011;10873;51.132;16.848;2023-11-21T10:27:08;22.92;;;10.55;;
21424;SDS011;10873;51.132;16.848;2023-11-21T10:29:34;22.30;;;11.27;;
21424;SDS011;10873;51.132;16.848;2023-11-21T10:32:01;22.70;;;10.50;;
21424;SDS011;10873;51.132;16.848;2023-11-21T10:34:27;23.88;;;10.93;;
21424;SDS011;10873;51.132;16.848;2023-11-21T10:36:55;20.42;;;10.85;;
21424;SDS011;10873;51.132;16.848;2023-11-21T10:39:30;26.98;;;10.23;;
21424;SDS011;10873;51.132;16.848;2023-11-21T10:41:56;20.08;;;10.07;;
21424;SDS011;10873;51.132;16.848;2023-11-21T10:44:22;20.42;;;10.40;;
21424;SDS011;10873;51.132;16.848;2023-11-21T10:46:50;21.48;;;9.55;;
21424;SDS011;10873;51.132;16.848;2023-11-21T10:49:17;21.88;;;9.98;;
21424;SDS011;10873;51.132;16.848;2023-11-21T10:51:45;19.08;;;9.48;;
21424;SDS011;10873;51.132;16.848;2023-11-21T10:54:12;25.08;;;10.18;;
21424;SDS011;10873;51.132;16.848;2023-11-21T10:56:46;18.42;;;9.85;;
21424;SDS011;10873;51.132;16.848;2023-11-21T10:59:22;19.17;;;10.27;;
21424;SDS011;10873;51.132;16.848;2023-11-21T11:01:50;25.00;;;10.25;;
21424;SDS011;10873;51.132;16.848;2023-11-21T11:04:18;19.13;;;10.25;;
21424;SDS011;10873;51.132;16.848;2023-11-21T11:06:45;21.10;;;9.98;;
21424;SDS011;10873;51.132;16.848;2023-11-21T11:09:16;16.13;;;9.52;;
21424;SDS011;10873;51.132;16.848;2023-11-21T11:11:43;17.48;;;9.75;;
21424;SDS011;10873;51.132;16.848;2023-11-21T11:14:12;19.65;;;9.60;;
21424;SDS011;10873;51.132;16.848;2023-11-21T11:16:39;14.48;;;8.80;;
21424;SDS011;10873;51.132;16.848;2023-11-21T11:19:06;16.90;;;9.40;;
21424;SDS011;10873;51.132;16.848;2023-11-21T11:21:35;17.63;;;9.95;;
21424;SDS011;10873;51.132;16.848;2023-11-21T11:24:13;16.73;;;9.77;;
21424;SDS011;10873;51.132;16.848;2023-11-21T11:26:50;17.45;;;9.10;;
21424;SDS011;10873;51.132;16.848;2023-11-21T11:29:40;18.52;;;9.02;;
21424;SDS011;10873;51.132;16.848;2023-11-21T11:32:13;13.82;;;8.48;;
21424;SDS011;10873;51.132;16.848;2023-11-21T11:34:55;14.98;;;8.10;;
21424;SDS011;10873;51.132;16.848;2023-11-21T11:37:34;15.30;;;8.80;;
21424;SDS011;10873;51.132;16.848;2023-11-21T11:40:01;17.17;;;9.25;;
21424;SDS011;10873;51.132;16.848;2023-11-21T11:42:32;15.55;;;8.55;;
21424;SDS011;10873;51.132;16.848;2023-11-21T11:44:58;14.15;;;8.98;;
21424;SDS011;10873;51.132;16.848;2023-11-21T11:47:24;19.00;;;9.20;;
21424;SDS011;10873;51.132;16.848;2023-11-21T11:49:58;15.88;;;8.75;;
21424;SDS011;10873;51.132;16.848;2023-11-21T11:52:37;14.10;;;9.30;;
21424;SDS011;10873;51.132;16.848;2023-11-21T11:55:10;15.95;;;8.68;;
21424;SDS011;10873;51.132;16.848;2023-11-21T11:57:37;14.43;;;8.88;;
21424;SDS011;10873;51.132;16.848;2023-11-21T12:00:07;13.43;;;8.50;;
21424;SDS011;10873;51.132;16.848;2023-11-21T12:02:36;12.75;;;8.02;;
21424;SDS011;10873;51.132;16.848;2023-11-21T12:05:06;13.18;;;8.32;;
21424;SDS011;10873;51.132;16.848;2023-11-21T12:07:44;17.02;;;8.60;;
21424;SDS011;10873;51.132;16.848;2023-11-21T12:10:13;13.65;;;8.77;;
21424;SDS011;10873;51.132;16.848;2023-11-21T12:12:43;15.10;;;9.38;;
21424;SDS011;10873;51.132;16.848;2023-11-21T12:15:18;14.00;;;8.50;;
21424;SDS011;10873;51.132;16.848;2023-11-21T12:17:45;14.52;;;8.38;;
21424;SDS011;10873;51.132;16.848;2023-11-21T12:20:11;13.88;;;8.55;;
21424;SDS011;10873;51.132;16.848;2023-11-21T12:22:43;12.35;;;8.25;;
21424;SDS011;10873;51.132;16.848;2023-11-21T12:25:14;13.55;;;8.15;;
21424;SDS011;10873;51.132;16.848;2023-11-21T12:27:48;17.23;;;7.90;;
21424;SDS011;10873;51.132;16.848;2023-11-21T12:30:15;15.35;;;7.95;;
21424;SDS011;10873;51.132;16.848;2023-11-21T12:32:43;13.50;;;8.15;;
21424;SDS011;10873;51.132;16.848;2023-11-21T12:35:13;12.48;;;7.63;;
21424;SDS011;10873;51.132;16.848;2023-11-21T12:37:39;13.52;;;8.50;;
21424;SDS011;10873;51.132;16.848;2023-11-21T12:40:08;13.18;;;7.90;;
21424;SDS011;10873;51.132;16.848;2023-11-21T12:42:43;13.07;;;7.70;;
21424;SDS011;10873;51.132;16.848;2023-11-21T12:45:18;10.80;;;7.38;;
21424;SDS011;10873;51.132;16.848;2023-11-21T12:47:46;10.35;;;7.20;;
21424;SDS011;10873;51.132;16.848;2023-11-21T12:50:18;13.40;;;7.43;;
21424;SDS011;10873;51.132;16.848;2023-11-21T12:52:58;13.05;;;7.43;;
21424;SDS011;10873;51.132;16.848;2023-11-21T12:55:25;12.30;;;7.20;;
21424;SDS011;10873;51.132;16.848;2023-11-21T12:57:56;10.85;;;7.38;;
21424;SDS011;10873;51.132;16.848;2023-11-21T13:00:27;16.63;;;7.65;;
21424;SDS011;10873;51.132;16.848;2023-11-21T13:02:58;9.95;;;6.88;;
21424;SDS011;10873;51.132;16.848;2023-11-21T13:05:26;8.55;;;5.88;;
21424;SDS011;10873;51.132;16.848;2023-11-21T13:07:53;9.57;;;6.85;;
21424;SDS011;10873;51.132;16.848;2023-11-21T13:10:20;9.38;;;5.97;;
21424;SDS011;10873;51.132;16.848;2023-11-21T13:12:53;9.75;;;6.10;;
21424;SDS011;10873;51.132;16.848;2023-11-21T13:15:31;12.13;;;6.43;;
21424;SDS011;10873;51.132;16.848;2023-11-21T13:17:58;10.55;;;6.22;;
21424;SDS011;10873;51.132;16.848;2023-11-21T13:20:24;9.18;;;6.03;;
21424;SDS011;10873;51.132;16.848;2023-11-21T13:22:51;7.55;;;5.65;;
21424;SDS011;10873;51.132;16.848;2023-11-21T13:25:26;8.68;;;5.90;;
21424;SDS011;10873;51.132;16.848;2023-11-21T13:27:52;8.25;;;5.88;;
21424;SDS011;10873;51.132;16.848;2023-11-21T13:30:19;8.18;;;5.55;;
21424;SDS011;10873;51.132;16.848;2023-11-21T13:32:53;10.55;;;5.75;;
21424;SDS011;10873;51.132;16.848;2023-11-21T13:35:27;9.57;;;5.60;;
21424;SDS011;10873;51.132;16.848;2023-11-21T13:38:03;11.02;;;5.53;;
21424;SDS011;10873;51.132;16.848;2023-11-21T13:40:32;7.70;;;5.25;;
21424;SDS011;10873;51.132;16.848;2023-11-21T13:43:05;12.70;;;6.10;;
21424;SDS011;10873;51.132;16.848;2023-11-21T13:45:35;7.55;;;5.47;;
21424;SDS011;10873;51.132;16.848;2023-11-21T13:48:06;8.65;;;5.88;;
21424;SDS011;10873;51.132;16.848;2023-11-21T13:50:36;9.00;;;5.93;;
21424;SDS011;10873;51.132;16.848;2023-11-21T13:53:02;8.02;;;5.53;;
21424;SDS011;10873;51.132;16.848;2023-11-21T13:55:42;8.23;;;5.60;;
21424;SDS011;10873;51.132;16.848;2023-11-21T13:58:07;10.30;;;5.60;;
21424;SDS011;10873;51.132;16.848;2023-11-21T14:00:37;9.70;;;5.47;;
21424;SDS011;10873;51.132;16.848;2023-11-21T14:03:15;10.32;;;5.80;;
21424;SDS011;10873;51.132;16.848;2023-11-21T14:05:47;9.93;;;5.68;;
21424;SDS011;10873;51.132;16.848;2023-11-21T14:08:17;7.78;;;5.90;;
21424;SDS011;10873;51.132;16.848;2023-11-21T14:10:45;11.45;;;5.57;;
21424;SDS011;10873;51.132;16.848;2023-11-21T14:13:16;9.63;;;5.50;;
21424;SDS011;10873;51.132;16.848;2023-11-21T14:15:43;7.00;;;4.80;;
21424;SDS011;10873;51.132;16.848;2023-11-21T14:18:11;7.53;;;4.75;;
21424;SDS011;10873;51.132;16.848;2023-11-21T14:20:41;8.35;;;5.28;;
21424;SDS011;10873;51.132;16.848;2023-11-21T14:23:07;7.78;;;5.15;;
21424;SDS011;10873;51.132;16.848;2023-11-21T14:25:33;5.85;;;4.35;;
21424;SDS011;10873;51.132;16.848;2023-11-21T14:28:02;6.35;;;4.72;;
21424;SDS011;10873;51.132;16.848;2023-11-21T14:30:29;8.88;;;4.97;;